Time;durP1;ratioP1;P1;durP2;ratioP2;P2;SDS_P1;SDS_P2;PMS_P1;PMS_P2;Temp;Humidity;BMP_temperature;BMP_pressure;BME280_temperature;BME280_humidity;BME280_pressure;Samples;Min_cycle;Max_cycle;Signal;HPM_P1;HPM_P2
2022/07/30 00:00:21;;;;;;;17.43;15.87;;;17.50;99.90;;;;;;4943591;29;20200;-88
2022/07/30 00:02:49;;;;;;;;;;;17.40;99.90;;;;;;4957587;28;20210;-87
2022/07/30 00:05:16;;;;;;;14.93;13.43;;;17.40;99.90;;;;;;4957132;29;20436;-90
2022/07/30 00:07:43;;;;;;;15.27;13.23;;;17.40;99.90;;;;;;4949091;29;20224;-89
2022/07/30 00:10:12;;;;;;;15.70;14.23;;;17.40;99.90;;;;;;4956697;29;20298;-87
2022/07/30 00:12:39;;;;;;;14.20;12.73;;;17.30;99.90;;;;;;4956957;28;20214;-88
2022/07/30 00:15:08;;;;;;;15.10;13.37;;;17.30;99.90;;;;;;4956736;29;20281;-89
2022/07/30 00:17:35;;;;;;;20.27;18.27;;;17.30;1.00;;;;;;4956532;28;20232;-87
2022/07/30 00:20:03;;;;;;;16.80;15.37;;;17.20;1.00;;;;;;4944290;29;20289;-88
2022/07/30 00:22:30;;;;;;;17.83;16.27;;;17.20;1.00;;;;;;4955668;29;20288;-87
2022/07/30 00:24:57;;;;;;;;;;;17.20;1.00;;;;;;4956879;29;20202;-87
2022/07/30 00:27:26;;;;;;;17.00;15.47;;;17.20;1.00;;;;;;4956438;29;20204;-87
2022/07/30 00:29:53;;;;;;;16.07;14.67;;;17.10;1.00;;;;;;4956436;28;20288;-88
2022/07/30 00:32:22;;;;;;;15.77;14.40;;;17.10;1.00;;;;;;4956241;29;20207;-89
2022/07/30 00:34:50;;;;;;;16.30;14.97;;;17.10;1.00;;;;;;4956381;29;20286;-88
2022/07/30 00:37:17;;;;;;;18.07;16.63;;;17.00;1.00;;;;;;4951786;29;20290;-88
2022/07/30 00:39:44;;;;;;;16.57;14.83;;;17.00;1.00;;;;;;4939699;28;20288;-91
2022/07/30 00:42:11;;;;;;;19.40;17.93;;;17.00;1.00;;;;;;4956503;29;20284;-90
2022/07/30 00:44:41;;;;;;;17.00;15.27;;;16.90;1.00;;;;;;4954775;29;20670;-89
2022/07/30 00:47:08;;;;;;;16.60;14.93;;;17.00;1.00;;;;;;4943958;29;20622;-88
2022/07/30 00:49:35;;;;;;;16.57;15.13;;;16.90;1.00;;;;;;4955935;29;20209;-88
2022/07/30 00:52:03;;;;;;;16.80;15.37;;;16.90;1.00;;;;;;4955969;29;20229;-87
2022/07/30 00:54:31;;;;;;;14.83;13.50;;;16.90;1.00;;;;;;4954132;29;20229;-88
2022/07/30 00:56:59;;;;;;;18.00;16.47;;;16.90;1.00;;;;;;4954820;29;20198;-88
2022/07/30 00:59:27;;;;;;;17.53;16.07;;;16.90;1.00;;;;;;4955066;28;20212;-87
2022/07/30 01:01:58;;;;;;;16.23;14.87;;;16.90;1.00;;;;;;4946293;28;20647;-87
2022/07/30 01:04:25;;;;;;;16.83;15.40;;;16.80;43.90;;;;;;4955937;29;20218;-89
2022/07/30 01:06:52;;;;;;;19.00;17.43;;;16.80;1.00;;;;;;4952201;29;20225;-88
2022/07/30 01:09:20;;;;;;;16.37;15.00;;;16.70;71.10;;;;;;4956014;29;20222;-88
2022/07/30 01:11:47;;;;;;;17.37;15.90;;;16.70;22.70;;;;;;4956122;29;20245;-90
2022/07/30 01:14:14;;;;;;;19.07;17.60;;;16.70;99.90;;;;;;4955896;28;20210;-89
2022/07/30 01:16:43;;;;;;;18.50;17.03;;;16.60;99.90;;;;;;4955692;29;20201;-87
2022/07/30 01:22:12;;;;;;;17.10;15.73;;;16.60;99.90;;;;;;4955233;29;20257;-89
2022/07/30 01:24:44;;;;;;;17.23;15.87;;;16.60;99.90;;;;;;4952980;28;20207;-88
2022/07/30 01:27:14;;;;;;;17.30;15.80;;;16.50;99.90;;;;;;4951163;29;20316;-88
2022/07/30 01:29:44;;;;;;;13.93;11.50;;;16.50;99.90;;;;;;4955707;29;20678;-87
2022/07/30 01:32:13;;;;;;;24.33;13.53;;;16.50;95.10;;;;;;4955624;29;20262;-88
2022/07/30 01:34:43;;;;;;;14.10;12.07;;;16.50;99.90;;;;;;4942735;28;20230;-90
2022/07/30 01:37:12;;;;;;;14.53;13.03;;;16.50;99.90;;;;;;4955602;28;20201;-88
2022/07/30 01:39:40;;;;;;;13.67;12.00;;;16.50;99.90;;;;;;4955184;28;20293;-89
2022/07/30 01:42:08;;;;;;;14.20;12.57;;;16.50;99.90;;;;;;4955296;28;20208;-87
2022/07/30 01:44:39;;;;;;;13.73;12.10;;;16.50;99.90;;;;;;4954995;29;20203;-88
2022/07/30 01:47:08;;;;;;;14.47;13.00;;;16.40;99.90;;;;;;4947828;29;20224;-89
2022/07/30 01:49:35;;;;;;;;;;;16.40;99.90;;;;;;4949455;29;20213;-88
2022/07/30 01:52:04;;;;;;;15.13;13.67;;;16.30;99.90;;;;;;4955058;29;20188;-87
2022/07/30 01:54:33;;;;;;;15.47;13.37;;;16.30;1.00;;;;;;4953496;28;20700;-88
2022/07/30 01:57:02;;;;;;;15.73;14.13;;;16.30;99.90;;;;;;4953988;29;20218;-87
2022/07/30 01:59:34;;;;;;;14.10;12.73;;;16.20;1.00;;;;;;4954609;28;20210;-90
2022/07/30 02:02:03;;;;;;;15.87;14.50;;;16.30;99.90;;;;;;4955021;29;20214;-89
2022/07/30 02:04:31;;;;;;;16.67;15.40;;;16.30;99.90;;;;;;4950961;29;20299;-88
2022/07/30 02:07:02;;;;;;;22.73;20.97;;;16.20;1.00;;;;;;4951411;29;20645;-89
2022/07/30 02:09:35;;;;;;;31.57;29.50;;;16.20;99.90;;;;;;4945270;29;20209;-88
2022/07/30 02:14:53;;;;;;;18.03;16.50;;;16.10;1.00;;;;;;4954768;29;20559;-89
2022/07/30 02:17:26;;;;;;;23.67;21.57;;;16.10;1.00;;;;;;4954682;28;20270;-88
2022/07/30 02:19:56;;;;;;;23.17;21.50;;;16.10;1.00;;;;;;4943559;29;20215;-89
2022/07/30 02:22:26;;;;;;;21.53;20.00;;;16.10;1.00;;;;;;4952968;29;20617;-87
2022/07/30 02:24:55;;;;;;;28.97;26.93;;;16.10;1.00;;;;;;4951282;28;20588;-87
2022/07/30 02:27:27;;;;;;;13.47;11.80;;;16.00;1.00;;;;;;4940690;29;20220;-90
2022/07/30 02:29:58;;;;;;;17.17;15.70;;;16.10;1.00;;;;;;4943775;29;20310;-90
2022/07/30 02:32:30;;;;;;;18.33;16.83;;;16.00;1.00;;;;;;4950594;29;20231;-88
2022/07/30 02:35:01;;;;;;;16.33;14.93;;;16.10;1.00;;;;;;4935895;28;20662;-86
2022/07/30 02:37:31;;;;;;;17.53;14.93;;;16.10;1.00;;;;;;4948373;29;20203;-87
2022/07/30 02:39:58;;;;;;;;;;;16.10;1.00;;;;;;4946086;29;20110;-88
2022/07/30 02:42:26;;;;;;;17.73;16.07;;;16.00;1.00;;;;;;4954165;29;20186;-87
2022/07/30 02:44:55;;;;;;;315.40;156.23;;;16.10;1.00;;;;;;4948298;28;20286;-90
2022/07/30 02:47:24;;;;;;;630.93;149.17;;;16.10;1.00;;;;;;4936456;29;20304;-87
2022/07/30 02:49:54;;;;;;;565.97;182.30;;;16.10;1.00;;;;;;4954092;29;20200;-91
2022/07/30 02:52:23;;;;;;;577.73;167.03;;;16.10;1.00;;;;;;4954675;29;20226;-89
2022/07/30 02:54:52;;;;;;;584.07;172.17;;;16.10;1.00;;;;;;4951902;29;20240;-87
2022/07/30 02:57:20;;;;;;;19.17;17.13;;;16.10;1.00;;;;;;4933064;29;20687;-88
2022/07/30 02:59:49;;;;;;;20.40;18.30;;;16.10;1.00;;;;;;4940890;28;20209;-89
2022/07/30 03:02:18;;;;;;;20.27;18.20;;;16.10;50.10;;;;;;4954573;29;20289;-89
2022/07/30 03:04:47;;;;;;;18.33;15.77;;;16.00;1.00;;;;;;4938695;28;20287;-89
2022/07/30 03:07:16;;;;;;;19.80;17.73;;;16.00;1.00;;;;;;4945547;29;20274;-91
2022/07/30 03:09:46;;;;;;;20.20;18.13;;;16.00;1.00;;;;;;4954579;28;20602;-88
2022/07/30 03:12:15;;;;;;;20.30;18.23;;;16.10;1.00;;;;;;4953999;28;20208;-90
2022/07/30 03:14:42;;;;;;;19.13;17.17;;;16.10;1.00;;;;;;4952360;29;20201;-89
2022/07/30 03:17:15;;;;;;;21.07;18.90;;;16.00;1.00;;;;;;4953876;28;20295;-88
2022/07/30 03:19:44;;;;;;;21.90;19.67;;;16.10;1.00;;;;;;4954177;28;20242;-88
2022/07/30 03:22:14;;;;;;;20.07;17.83;;;16.10;1.00;;;;;;4946749;29;20254;-90
2022/07/30 03:24:44;;;;;;;19.07;17.00;;;16.10;1.00;;;;;;4946362;29;20601;-91
2022/07/30 03:27:13;;;;;;;20.33;18.27;;;16.10;1.00;;;;;;4958086;29;20207;-90
2022/07/30 03:29:42;;;;;;;20.00;17.80;;;16.10;1.00;;;;;;4958081;29;20212;-90
2022/07/30 03:32:11;;;;;;;21.53;19.30;;;16.00;1.00;;;;;;4925184;29;20679;-89
2022/07/30 03:34:38;;;;;;;22.23;19.73;;;16.00;1.00;;;;;;4950063;29;20679;-87
2022/07/30 03:37:06;;;;;;;21.50;19.37;;;16.00;1.00;;;;;;4959384;28;20200;-88
2022/07/30 03:39:34;;;;;;;21.50;19.40;;;15.90;1.00;;;;;;4959025;29;20729;-88
2022/07/30 03:42:04;;;;;;;22.83;17.33;;;15.90;1.00;;;;;;4961740;29;20205;-86
2022/07/30 03:44:33;;;;;;;21.80;19.53;;;15.80;1.00;;;;;;4955658;29;20198;-86
2022/07/30 03:47:02;;;;;;;23.07;20.77;;;15.80;1.00;;;;;;4959110;29;20188;-87
2022/07/30 03:49:29;;;;;;;24.13;21.87;;;15.80;1.00;;;;;;4957515;29;20567;-88
2022/07/30 03:51:57;;;;;;;22.60;20.33;;;15.80;11.40;;;;;;4960963;29;20206;-87
2022/07/30 03:54:25;;;;;;;22.75;20.50;;;15.80;1.00;;;;;;4937985;29;20191;-87
2022/07/30 03:56:52;;;;;;;24.80;22.43;;;15.80;9.10;;;;;;4957348;29;20447;-90
2022/07/30 03:59:21;;;;;;;;;;;15.80;1.00;;;;;;4961072;28;20197;-86
2022/07/30 04:01:51;;;;;;;24.03;21.77;;;15.80;1.00;;;;;;4959013;29;20438;-86
2022/07/30 04:04:18;;;;;;;24.50;22.23;;;15.80;1.00;;;;;;4949987;29;20280;-88
2022/07/30 04:06:45;;;;;;;23.93;21.77;;;15.80;1.00;;;;;;4949355;29;20195;-88
2022/07/30 04:09:13;;;;;;;23.40;21.07;;;15.80;1.00;;;;;;4942837;29;20694;-86
2022/07/30 04:11:40;;;;;;;24.70;22.43;;;15.80;7.60;;;;;;4958944;29;20205;-86
2022/07/30 04:14:07;;;;;;;22.10;20.00;;;15.80;35.20;;;;;;4957964;28;20199;-88
2022/07/30 04:16:42;;;;;;;24.57;22.27;;;15.80;15.10;;;;;;4952986;29;20543;-88
2022/07/30 04:19:21;;;;;;;21.90;19.83;;;15.80;22.00;;;;;;4957533;28;20239;-88
2022/07/30 04:21:50;;;;;;;21.50;19.33;;;15.90;1.00;;;;;;4952737;29;20283;-87
2022/07/30 04:24:20;;;;;;;23.00;20.83;;;15.90;27.10;;;;;;4951290;29;20256;-88
2022/07/30 04:26:48;;;;;;;24.70;21.47;;;15.90;1.00;;;;;;4946473;29;20368;-85
2022/07/30 04:29:23;;;;;;;23.50;21.17;;;15.90;1.00;;;;;;4959259;29;20233;-89
2022/07/30 04:31:53;;;;;;;24.67;22.40;;;15.90;23.00;;;;;;4958444;28;20202;-87
2022/07/30 04:34:21;;;;;;;23.40;21.13;;;15.90;1.00;;;;;;4950590;29;20212;-87
2022/07/30 04:36:48;;;;;;;23.47;21.23;;;16.00;1.00;;;;;;4958333;29;20194;-88
2022/07/30 04:39:15;;;;;;;23.60;21.40;;;16.00;1.00;;;;;;4956132;28;20203;-86
2022/07/30 04:41:42;;;;;;;22.40;20.23;;;16.10;1.00;;;;;;4957370;28;20263;-89
2022/07/30 04:44:09;;;;;;;21.73;19.57;;;16.00;1.00;;;;;;4959102;28;20203;-87
2022/07/30 04:46:36;;;;;;;24.30;22.10;;;16.10;1.00;;;;;;4957336;29;20560;-86
2022/07/30 04:49:13;;;;;;;25.03;19.80;;;16.20;1.00;;;;;;4959369;28;20217;-88
2022/07/30 04:51:42;;;;;;;22.97;20.53;;;16.20;1.00;;;;;;4958787;28;20207;-89
2022/07/30 04:54:13;;;;;;;23.37;21.07;;;16.30;1.00;;;;;;4951874;29;20657;-90
2022/07/30 04:56:41;;;;;;;21.77;19.60;;;16.30;1.00;;;;;;4953352;29;20648;-87
2022/07/30 04:59:10;;;;;;;21.23;19.17;;;16.30;1.00;;;;;;4956246;29;20201;-88
2022/07/30 05:01:39;;;;;;;22.83;20.67;;;16.30;1.00;;;;;;4948783;29;20725;-88
2022/07/30 05:04:10;;;;;;;22.60;20.40;;;16.40;1.00;;;;;;4952725;29;20211;-88
2022/07/30 05:06:46;;;;;;;22.63;20.37;;;16.40;1.00;;;;;;4958181;29;20614;-87
2022/07/30 05:09:15;;;;;;;21.13;18.97;;;16.50;1.00;;;;;;4944656;29;20246;-88
2022/07/30 05:11:42;;;;;;;22.30;20.13;;;16.50;1.00;;;;;;4956017;29;20240;-88
2022/07/30 05:14:09;;;;;;;23.77;21.33;;;16.60;1.00;;;;;;4956331;29;20208;-88
2022/07/30 05:16:43;;;;;;;22.37;20.20;;;16.60;1.00;;;;;;4956802;28;20204;-90
2022/07/30 05:19:12;;;;;;;22.53;20.27;;;16.70;1.00;;;;;;4959154;28;20242;-88
2022/07/30 05:21:39;;;;;;;22.60;20.37;;;16.80;1.00;;;;;;4958418;29;20238;-88
2022/07/30 05:24:07;;;;;;;22.80;20.63;;;16.80;99.90;;;;;;4946406;29;20208;-87
2022/07/30 05:26:34;;;;;;;21.83;19.73;;;16.80;1.00;;;;;;4956364;29;20208;-89
2022/07/30 05:29:02;;;;;;;22.73;20.57;;;16.90;99.90;;;;;;4958357;29;20305;-87
2022/07/30 05:31:29;;;;;;;22.07;19.80;;;16.90;99.90;;;;;;4943942;29;20269;-88
2022/07/30 05:33:56;;;;;;;23.60;21.33;;;16.90;99.90;;;;;;4957616;29;20660;-88
2022/07/30 05:36:30;;;;;;;32.00;21.03;;;16.90;99.90;;;;;;4956157;28;20205;-89
2022/07/30 05:39:07;;;;;;;24.50;22.13;;;17.00;99.90;;;;;;4943979;28;20204;-87
2022/07/30 05:41:34;;;;;;;21.70;19.63;;;17.00;99.90;;;;;;4958924;28;20234;-88
2022/07/30 05:44:02;;;;;;;23.10;20.90;;;17.10;99.90;;;;;;4957678;28;20213;-88
2022/07/30 05:46:30;;;;;;;22.17;20.00;;;17.10;99.90;;;;;;4957961;28;20214;-89
2022/07/30 05:48:57;;;;;;;24.13;21.80;;;17.10;99.90;;;;;;4955623;29;20560;-90
2022/07/30 05:51:25;;;;;;;23.33;21.13;;;17.20;99.90;;;;;;4955880;29;20199;-86
2022/07/30 05:53:52;;;;;;;23.17;20.97;;;17.20;99.90;;;;;;4948738;28;20197;-86
2022/07/30 05:56:20;;;;;;;22.97;20.70;;;17.30;99.90;;;;;;4955144;29;20228;-88
2022/07/30 05:58:47;;;;;;;23.20;21.03;;;17.30;99.90;;;;;;4956337;29;20207;-86
2022/07/30 06:01:14;;;;;;;22.93;20.60;;;17.40;99.90;;;;;;4954938;28;20211;-86
2022/07/30 06:03:41;;;;;;;23.90;21.43;;;17.40;99.90;;;;;;4954929;29;20208;-88
2022/07/30 06:06:08;;;;;;;24.20;21.20;;;17.50;98.90;;;;;;4954724;28;20554;-88
2022/07/30 06:08:37;;;;;;;25.07;22.70;;;17.50;60.80;;;;;;4954871;28;20281;-88
2022/07/30 06:11:04;;;;;;;24.63;21.90;;;17.60;16.90;;;;;;4954797;29;20206;-87
2022/07/30 06:13:31;;;;;;;23.60;21.03;;;17.60;1.00;;;;;;4954630;29;20204;-87
2022/07/30 06:15:58;;;;;;;23.77;21.47;;;17.70;1.00;;;;;;4954464;28;20211;-87
2022/07/30 06:18:26;;;;;;;22.83;20.63;;;17.70;1.00;;;;;;4954494;28;20234;-86
2022/07/30 06:20:54;;;;;;;23.63;21.37;;;17.80;1.00;;;;;;4954334;29;20196;-88
2022/07/30 06:23:22;;;;;;;22.90;20.63;;;17.90;1.00;;;;;;4953110;28;20239;-86
2022/07/30 06:25:51;;;;;;;21.73;19.53;;;17.90;1.00;;;;;;4952277;29;20567;-86
2022/07/30 06:28:19;;;;;;;24.07;21.60;;;18.00;1.00;;;;;;4948698;28;20199;-86
2022/07/30 06:30:47;;;;;;;24.17;21.87;;;18.10;1.00;;;;;;4951236;29;20291;-87
2022/07/30 06:33:15;;;;;;;23.13;20.77;;;18.20;1.00;;;;;;4955482;28;20204;-88
2022/07/30 06:35:42;;;;;;;23.53;21.27;;;18.20;1.00;;;;;;4954470;28;20200;-86
2022/07/30 06:38:09;;;;;;;21.13;18.97;;;18.30;1.00;;;;;;4954715;29;20202;-86
2022/07/30 06:40:36;;;;;;;20.80;18.73;;;18.40;1.00;;;;;;4953988;28;20606;-87
2022/07/30 06:43:05;;;;;;;20.83;18.73;;;18.50;1.00;;;;;;4953858;28;20192;-85
2022/07/30 06:45:32;;;;;;;22.30;20.13;;;18.60;1.00;;;;;;4953878;28;20252;-87
2022/07/30 06:47:59;;;;;;;21.83;19.63;;;18.70;1.00;;;;;;4954232;28;20196;-85
2022/07/30 06:50:26;;;;;;;22.53;19.27;;;18.70;1.00;;;;;;4954126;29;20227;-87
2022/07/30 06:52:54;;;;;;;20.37;18.20;;;18.80;1.00;;;;;;4956865;29;20595;-88
2022/07/30 06:55:22;;;;;;;21.00;18.90;;;18.80;1.00;;;;;;4945444;29;20275;-86
2022/07/30 06:57:49;;;;;;;37.17;17.97;;;18.90;1.00;;;;;;4954644;28;20665;-86
2022/07/30 07:00:17;;;;;;;20.47;18.07;;;19.00;1.00;;;;;;4959696;28;20199;-87
2022/07/30 07:02:44;;;;;;;21.83;19.63;;;19.10;1.00;;;;;;4954503;29;20535;-87
2022/07/30 07:05:17;;;;;;;23.50;21.13;;;19.10;99.90;;;;;;4971829;28;20278;-91
2022/07/30 07:07:54;;;;;;;21.37;19.33;;;19.20;99.90;;;;;;4972893;28;20200;-90
2022/07/30 07:10:31;;;;;;;22.40;19.90;;;19.20;99.90;;;;;;4962865;29;20216;-88
2022/07/30 07:13:46;;;;;;;21.87;19.77;;;19.30;99.90;;;;;;4976393;29;20204;-92
2022/07/30 07:16:15;;;;;;;20.53;18.53;;;19.40;99.90;;;;;;4959198;29;20208;-88
2022/07/30 07:18:42;;;;;;;20.97;18.90;;;19.50;99.90;;;;;;4950782;28;20263;-86
2022/07/30 07:21:09;;;;;;;20.80;18.80;;;19.70;99.90;;;;;;4945577;28;20182;-87
2022/07/30 07:23:36;;;;;;;21.70;19.53;;;19.80;99.90;;;;;;4954248;29;20193;-89
2022/07/30 07:26:03;;;;;;;21.57;19.47;;;19.90;99.90;;;;;;4966210;28;20215;-89
2022/07/30 07:28:30;;;;;;;21.17;19.00;;;20.10;99.90;;;;;;4966700;28;20201;-88
2022/07/30 07:30:57;;;;;;;23.17;20.90;;;20.30;99.90;;;;;;4944600;28;20669;-88
2022/07/30 07:33:26;;;;;;;21.37;18.00;;;20.50;99.90;;;;;;4955559;29;20200;-87
2022/07/30 07:35:54;;;;;;;21.27;19.23;;;20.50;99.90;;;;;;4954010;28;20213;-85
2022/07/30 07:38:21;;;;;;;19.90;17.90;;;20.60;99.90;;;;;;4957452;29;20203;-87
2022/07/30 07:40:48;;;;;;;21.37;19.27;;;20.80;99.90;;;;;;4965580;29;20213;-88
2022/07/30 07:43:16;;;;;;;21.87;19.77;;;20.90;99.90;;;;;;4952689;28;20598;-87
2022/07/30 07:45:44;;;;;;;20.13;18.17;;;21.10;99.90;;;;;;4949121;29;20204;-88
2022/07/30 07:48:11;;;;;;;21.10;19.00;;;21.20;99.90;;;;;;4961230;28;20208;-89
2022/07/30 07:50:40;;;;;;;21.30;19.17;;;21.40;99.90;;;;;;4963633;29;20250;-89
2022/07/30 07:53:07;;;;;;;20.10;18.10;;;21.50;99.90;;;;;;4963303;28;20556;-87
2022/07/30 07:55:34;;;;;;;23.33;21.13;;;21.60;99.90;;;;;;4943259;29;20026;-87
2022/07/30 07:58:02;;;;;;;21.60;19.50;;;21.70;99.90;;;;;;4943547;29;20450;-88
2022/07/30 08:00:30;;;;;;;23.10;20.80;;;21.70;99.90;;;;;;4958553;28;20196;-88
2022/07/30 08:02:56;;;;;;;;;;;21.80;99.90;;;;;;4957123;28;20196;-88
2022/07/30 08:05:24;;;;;;;23.93;19.63;;;21.90;99.90;;;;;;4957365;29;20190;-88
2022/07/30 08:07:52;;;;;;;;;;;22.00;99.90;;;;;;4960146;29;20200;-86
2022/07/30 08:10:19;;;;;;;21.87;19.77;;;22.10;99.90;;;;;;4961108;28;20510;-87
2022/07/30 08:12:46;;;;;;;22.67;20.47;;;22.10;99.90;;;;;;4955169;28;20205;-85
2022/07/30 08:15:13;;;;;;;21.80;19.70;;;22.10;99.90;;;;;;4953484;28;20651;-88
2022/07/30 08:17:45;;;;;;;22.47;20.30;;;22.00;99.90;;;;;;4958885;28;20576;-91
2022/07/30 08:20:23;;;;;;;19.77;17.87;;;22.10;99.90;;;;;;4964717;29;20204;-87
2022/07/30 08:22:52;;;;;;;20.43;18.63;;;22.00;99.90;;;;;;4960439;28;20251;-87
2022/07/30 08:25:23;;;;;;;19.17;17.47;;;22.00;99.90;;;;;;4950782;28;20192;-86
2022/07/30 08:28:01;;;;;;;20.07;18.27;;;22.00;99.90;;;;;;4961068;29;20212;-85
2022/07/30 08:30:29;;;;;;;19.57;17.77;;;22.10;99.90;;;;;;4951320;29;20697;-89
2022/07/30 08:32:56;;;;;;;18.20;16.53;;;22.00;99.90;;;;;;4961834;28;20197;-90
2022/07/30 08:35:26;;;;;;;19.23;17.53;;;22.00;99.90;;;;;;4946827;29;20203;-91
2022/07/30 08:37:57;;;;;;;18.50;16.60;;;22.10;99.90;;;;;;4964790;28;20276;-92
2022/07/30 08:40:33;;;;;;;17.80;16.20;;;22.10;99.90;;;;;;4954834;28;20653;-91
2022/07/30 08:43:05;;;;;;;17.70;16.10;;;22.10;99.90;;;;;;4942644;29;20620;-89
2022/07/30 08:45:33;;;;;;;18.70;17.00;;;22.20;99.90;;;;;;4947149;29;20844;-89
2022/07/30 08:48:07;;;;;;;17.33;15.33;;;22.30;99.90;;;;;;4962321;29;20208;-86
2022/07/30 08:50:35;;;;;;;16.00;14.43;;;22.40;99.90;;;;;;4963432;29;20204;-88
2022/07/30 08:53:06;;;;;;;35.30;16.33;;;22.60;99.90;;;;;;4955513;28;20201;-86
2022/07/30 08:55:34;;;;;;;18.83;16.67;;;22.70;99.90;;;;;;4954365;29;20181;-88
2022/07/30 08:58:01;;;;;;;26.07;15.83;;;22.80;99.90;;;;;;4944935;29;20208;-89
2022/07/30 09:00:30;;;;;;;17.43;15.67;;;22.90;99.90;;;;;;4948939;29;20203;-88
2022/07/30 09:02:57;;;;;;;23.00;17.13;;;22.90;99.90;;;;;;4943019;28;20224;-85
2022/07/30 09:05:25;;;;;;;17.63;15.97;;;23.00;99.90;;;;;;4922468;29;20198;-89
2022/07/30 09:07:52;;;;;;;16.67;14.77;;;23.10;99.90;;;;;;4922487;29;20193;-88
2022/07/30 09:10:24;;;;;;;18.30;16.60;;;23.10;98.90;;;;;;4931682;29;20670;-88
2022/07/30 09:12:51;;;;;;;17.97;16.30;;;23.20;98.00;;;;;;4936002;29;20244;-86
2022/07/30 09:15:21;;;;;;;19.40;17.63;;;23.20;96.20;;;;;;4935855;29;20650;-86
2022/07/30 09:17:54;;;;;;;18.83;17.10;;;23.30;97.30;;;;;;4924037;29;20221;-86
2022/07/30 09:20:23;;;;;;;18.20;16.57;;;23.50;96.50;;;;;;4934996;29;20662;-86
2022/07/30 09:22:52;;;;;;;20.43;18.33;;;23.60;93.80;;;;;;4936219;29;20200;-86
2022/07/30 09:25:39;;;;;;;18.80;17.10;;;23.70;91.90;;;;;;4933929;29;20211;-87
2022/07/30 09:28:10;;;;;;;19.57;17.77;;;23.70;90.70;;;;;;4935929;29;20148;-87
2022/07/30 09:30:46;;;;;;;21.37;19.47;;;23.90;86.30;;;;;;4936683;29;20217;-86
2022/07/30 09:33:14;;;;;;;19.97;18.17;;;23.90;82.20;;;;;;4935743;29;20669;-85
2022/07/30 09:35:41;;;;;;;19.83;18.13;;;24.10;76.10;;;;;;4938871;29;20569;-90
2022/07/30 09:38:09;;;;;;;19.50;17.67;;;24.20;69.80;;;;;;4958390;28;20191;-88
2022/07/30 09:40:38;;;;;;;20.45;18.70;;;24.30;68.10;;;;;;4957936;29;20197;-88
2022/07/30 09:43:06;;;;;;;;;;;24.30;63.40;;;;;;4945479;29;20446;-88
2022/07/30 09:45:34;;;;;;;22.77;20.57;;;24.40;56.80;;;;;;4956000;29;20779;-87
2022/07/30 09:48:01;;;;;;;22.57;20.57;;;24.50;56.60;;;;;;4941339;29;20650;-88
2022/07/30 09:50:29;;;;;;;23.50;21.50;;;24.50;51.60;;;;;;4947555;29;20227;-89
2022/07/30 09:53:07;;;;;;;22.90;20.90;;;24.50;74.10;;;;;;4949262;29;20291;-85
2022/07/30 09:55:36;;;;;;;617.70;297.85;;;24.60;49.30;;;;;;4935746;29;20279;-88
2022/07/30 09:58:05;;;;;;;;;;;24.60;47.10;;;;;;4949308;29;20371;-86
2022/07/30 10:00:34;;;;;;;641.50;369.40;;;24.70;45.90;;;;;;4954327;29;20050;-88
2022/07/30 10:03:02;;;;;;;618.60;299.03;;;24.80;44.00;;;;;;4954691;29;20267;-89
2022/07/30 10:05:29;;;;;;;602.43;306.07;;;24.80;39.90;;;;;;4949154;28;20659;-89
2022/07/30 10:07:58;;;;;;;602.53;305.30;;;24.90;37.90;;;;;;4947449;29;20570;-86
2022/07/30 10:10:27;;;;;;;600.07;309.00;;;25.00;35.80;;;;;;4954477;28;20297;-86
2022/07/30 10:12:58;;;;;;;604.27;323.80;;;25.00;33.60;;;;;;4942489;28;20212;-87
2022/07/30 10:15:34;;;;;;;615.13;331.43;;;25.00;33.60;;;;;;4930275;29;20220;-89
2022/07/30 10:18:06;;;;;;;614.30;327.47;;;25.00;31.50;;;;;;4953851;28;20227;-88
2022/07/30 10:20:34;;;;;;;604.77;317.47;;;25.10;32.70;;;;;;4954137;28;20611;-88
2022/07/30 10:23:01;;;;;;;609.30;322.33;;;25.00;27.80;;;;;;4955612;28;20196;-88
2022/07/30 10:25:29;;;;;;;611.83;317.70;;;25.00;26.60;;;;;;4945835;29;20194;-86
2022/07/30 10:27:56;;;;;;;612.10;315.40;;;25.00;25.60;;;;;;4947254;29;20208;-85
2022/07/30 10:30:24;;;;;;;616.67;319.83;;;24.90;24.20;;;;;;4929028;28;20218;-86
2022/07/30 10:32:53;;;;;;;606.03;308.50;;;24.80;24.10;;;;;;4922562;29;20209;-86
2022/07/30 10:35:20;;;;;;;619.50;321.67;;;24.90;23.30;;;;;;4926071;29;20696;-87
2022/07/30 10:37:51;;;;;;;608.93;316.53;;;25.00;21.90;;;;;;4946791;29;20260;-87
2022/07/30 10:40:26;;;;;;;613.90;310.90;;;25.10;22.00;;;;;;4944278;29;20197;-88
2022/07/30 10:43:22;;;;;;;611.73;298.27;;;25.20;21.30;;;;;;4930042;29;20189;-88
2022/07/30 10:45:58;;;;;;;603.13;313.70;;;25.20;18.70;;;;;;4934208;29;20299;-88
2022/07/30 10:48:56;;;;;;;622.73;308.27;;;25.30;17.50;;;;;;4920488;29;20532;-88
2022/07/30 10:51:42;;;;;;;631.90;316.50;;;25.30;13.90;;;;;;4939547;29;20211;-87
2022/07/30 10:54:39;;;;;;;638.07;328.37;;;25.40;15.50;;;;;;4953277;28;20184;-86
2022/07/30 10:57:09;;;;;;;637.37;315.40;;;25.30;13.40;;;;;;4930990;28;20197;-87
2022/07/30 11:00:12;;;;;;;641.53;321.53;;;25.30;13.20;;;;;;4935405;29;20713;-87
2022/07/30 11:02:39;;;;;;;643.77;314.30;;;25.50;12.70;;;;;;4933674;29;20201;-86
2022/07/30 11:05:27;;;;;;;26.30;23.73;;;25.50;11.00;;;;;;4934179;29;20224;-85
2022/07/30 11:07:55;;;;;;;24.90;22.80;;;25.50;22.80;;;;;;4931134;29;20312;-86
2022/07/30 11:10:36;;;;;;;;;;;25.40;5.50;;;;;;4924758;29;21045;-87
2022/07/30 11:13:04;;;;;;;;;;;25.40;5.00;;;;;;4924427;29;19961;-86
2022/07/30 11:15:49;;;;;;;;;;;25.30;4.40;;;;;;4921990;29;19923;-87
2022/07/30 11:18:17;;;;;;;;;;;25.20;4.40;;;;;;4917966;29;19923;-86
2022/07/30 11:21:05;;;;;;;;;;;25.20;4.30;;;;;;4924598;29;19923;-86
2022/07/30 11:23:35;;;;;;;;;;;25.20;3.80;;;;;;4917540;29;19933;-85
2022/07/30 11:26:03;;;;;;;;;;;25.20;4.70;;;;;;4920667;29;19926;-86
2022/07/30 11:28:37;;;;;;;;;;;25.20;3.40;;;;;;4921441;29;19927;-85
2022/07/30 11:31:21;;;;;;;;;;;25.20;2.20;;;;;;4920517;29;20273;-86
2022/07/30 11:33:48;;;;;;;;;;;25.20;1.00;;;;;;4917940;29;19927;-86
2022/07/30 11:36:17;;;;;;;;;;;25.10;1.00;;;;;;4929129;29;20336;-86
2022/07/30 11:38:51;;;;;;;;;;;25.00;1.00;;;;;;4921005;29;19923;-86
2022/07/30 11:41:18;;;;;;;;;;;25.00;1.00;;;;;;4915584;29;20404;-86
2022/07/30 11:43:45;;;;;;;24.17;22.07;;;25.00;1.00;;;;;;4921515;29;20479;-86
2022/07/30 11:46:16;;;;;;;23.80;21.70;;;24.90;1.00;;;;;;4927710;29;20201;-85
2022/07/30 11:48:56;;;;;;;25.00;22.80;;;24.90;1.00;;;;;;4930320;29;20201;-87
2022/07/30 11:51:25;;;;;;;23.73;21.67;;;25.00;1.00;;;;;;4937498;29;20240;-86
2022/07/30 11:54:11;;;;;;;23.70;21.70;;;25.00;1.00;;;;;;4923754;29;20288;-87
2022/07/30 11:56:49;;;;;;;24.47;22.40;;;24.80;1.00;;;;;;4926691;29;20198;-88
2022/07/30 11:59:16;;;;;;;24.10;22.00;;;24.90;1.00;;;;;;4926784;29;20185;-87
2022/07/30 12:01:48;;;;;;;25.87;23.67;;;24.90;1.00;;;;;;4918025;29;20210;-86
2022/07/30 12:04:16;;;;;;;26.13;23.77;;;25.00;1.00;;;;;;4930381;29;20266;-89
2022/07/30 12:06:46;;;;;;;25.17;23.03;;;25.10;1.00;;;;;;4927832;29;20205;-85
2022/07/30 12:09:23;;;;;;;23.50;21.30;;;25.10;1.00;;;;;;4926180;29;20202;-85
2022/07/30 12:11:50;;;;;;;23.17;21.13;;;25.00;1.00;;;;;;4927624;29;20299;-85
2022/07/30 12:14:17;;;;;;;22.73;20.73;;;25.00;1.00;;;;;;4925414;29;20212;-85
2022/07/30 12:16:51;;;;;;;23.33;21.30;;;25.00;1.00;;;;;;4920616;29;20193;-86
2022/07/30 12:19:19;;;;;;;23.27;21.27;;;25.00;1.00;;;;;;4920376;29;20224;-89
2022/07/30 12:21:47;;;;;;;26.60;24.30;;;25.00;1.00;;;;;;4927480;29;20208;-87
2022/07/30 12:24:14;;;;;;;27.63;25.03;;;25.00;1.00;;;;;;4919701;29;20254;-85
2022/07/30 12:26:41;;;;;;;26.17;23.97;;;25.00;1.00;;;;;;4930091;29;20258;-86
2022/07/30 12:29:12;;;;;;;25.17;23.07;;;25.10;1.00;;;;;;4936893;29;20547;-86
2022/07/30 12:31:40;;;;;;;24.63;22.57;;;25.10;1.00;;;;;;4936944;29;20209;-85
2022/07/30 12:34:20;;;;;;;25.80;23.60;;;25.10;1.00;;;;;;4934801;29;20196;-86
2022/07/30 12:36:49;;;;;;;284.00;148.10;;;25.10;1.00;;;;;;4938993;29;20197;-85
2022/07/30 12:39:20;;;;;;;433.37;214.83;;;25.20;1.00;;;;;;4956126;28;20674;-88
2022/07/30 12:41:49;;;;;;;605.77;312.03;;;25.20;1.00;;;;;;4958584;29;20203;-89
2022/07/30 12:44:36;;;;;;;603.47;313.20;;;25.20;1.00;;;;;;4957675;29;20236;-87
2022/07/30 12:47:05;;;;;;;601.37;311.40;;;25.30;1.00;;;;;;4952938;28;20646;-88
2022/07/30 12:49:41;;;;;;;601.03;313.57;;;25.30;1.00;;;;;;4948385;29;20201;-87
2022/07/30 12:52:15;;;;;;;605.30;320.73;;;25.30;1.00;;;;;;4958152;28;20212;-86
2022/07/30 12:54:42;;;;;;;608.70;320.23;;;25.30;1.00;;;;;;4958269;28;20199;-87